sensor_id;sensor_type;location;lat;lon;timestamp;P1;durP1;ratioP1;P2;durP2;ratioP2
20101;SDS011;10210;52.284;9.892;2022-08-06T00:01:53;7.50;;;1.30;;
20101;SDS011;10210;52.284;9.892;2022-08-06T00:04:19;4.00;;;1.27;;
20101;SDS011;10210;52.284;9.892;2022-08-06T00:06:46;4.63;;;1.53;;
20101;SDS011;10210;52.284;9.892;2022-08-06T00:09:12;4.03;;;1.33;;
20101;SDS011;10210;52.284;9.892;2022-08-06T00:11:38;2.83;;;1.20;;
20101;SDS011;10210;52.284;9.892;2022-08-06T00:14:05;2.90;;;1.40;;
20101;SDS011;10210;52.284;9.892;2022-08-06T00:16:31;2.93;;;1.20;;
20101;SDS011;10210;52.284;9.892;2022-08-06T00:18:57;5.07;;;1.70;;
20101;SDS011;10210;52.284;9.892;2022-08-06T00:21:22;2.53;;;1.20;;
20101;SDS011;10210;52.284;9.892;2022-08-06T00:23:48;1.40;;;1.20;;
20101;SDS011;10210;52.284;9.892;2022-08-06T00:26:14;2.97;;;1.37;;
20101;SDS011;10210;52.284;9.892;2022-08-06T00:28:39;6.27;;;1.50;;
20101;SDS011;10210;52.284;9.892;2022-08-06T00:31:06;3.80;;;1.30;;
20101;SDS011;10210;52.284;9.892;2022-08-06T00:33:35;1.83;;;1.20;;
20101;SDS011;10210;52.284;9.892;2022-08-06T00:36:01;2.23;;;1.10;;
20101;SDS011;10210;52.284;9.892;2022-08-06T00:38:28;2.57;;;1.30;;
20101;SDS011;10210;52.284;9.892;2022-08-06T00:40:53;6.23;;;1.60;;
20101;SDS011;10210;52.284;9.892;2022-08-06T00:43:19;2.27;;;1.23;;
20101;SDS011;10210;52.284;9.892;2022-08-06T00:45:45;3.43;;;1.20;;
20101;SDS011;10210;52.284;9.892;2022-08-06T00:48:12;4.37;;;1.30;;
20101;SDS011;10210;52.284;9.892;2022-08-06T00:50:38;3.27;;;1.40;;
20101;SDS011;10210;52.284;9.892;2022-08-06T00:53:04;3.20;;;1.30;;
20101;SDS011;10210;52.284;9.892;2022-08-06T00:55:31;3.30;;;1.30;;
20101;SDS011;10210;52.284;9.892;2022-08-06T00:57:57;4.03;;;1.63;;
20101;SDS011;10210;52.284;9.892;2022-08-06T01:00:23;4.53;;;1.30;;
20101;SDS011;10210;52.284;9.892;2022-08-06T01:02:49;6.67;;;1.40;;
20101;SDS011;10210;52.284;9.892;2022-08-06T01:05:15;3.53;;;1.27;;
20101;SDS011;10210;52.284;9.892;2022-08-06T01:07:41;3.57;;;1.20;;
20101;SDS011;10210;52.284;9.892;2022-08-06T01:10:07;3.93;;;1.40;;
20101;SDS011;10210;52.284;9.892;2022-08-06T01:12:32;3.67;;;1.50;;
20101;SDS011;10210;52.284;9.892;2022-08-06T01:14:58;5.63;;;1.30;;
20101;SDS011;10210;52.284;9.892;2022-08-06T01:20:19;3.60;;;1.30;;
20101;SDS011;10210;52.284;9.892;2022-08-06T01:23:28;2.97;;;1.50;;
20101;SDS011;10210;52.284;9.892;2022-08-06T01:29:36;2.73;;;1.30;;
20101;SDS011;10210;52.284;9.892;2022-08-06T01:32:06;3.37;;;1.30;;
20101;SDS011;10210;52.284;9.892;2022-08-06T01:34:41;3.60;;;1.40;;
20101;SDS011;10210;52.284;9.892;2022-08-06T01:37:17;3.70;;;1.53;;
20101;SDS011;10210;52.284;9.892;2022-08-06T01:40:03;3.47;;;1.57;;
20101;SDS011;10210;52.284;9.892;2022-08-06T01:42:34;4.27;;;1.77;;
20101;SDS011;10210;52.284;9.892;2022-08-06T01:45:03;2.93;;;1.50;;
20101;SDS011;10210;52.284;9.892;2022-08-06T01:47:32;3.93;;;1.40;;
20101;SDS011;10210;52.284;9.892;2022-08-06T01:50:02;5.33;;;1.50;;
20101;SDS011;10210;52.284;9.892;2022-08-06T01:52:31;4.37;;;1.50;;
20101;SDS011;10210;52.284;9.892;2022-08-06T01:55:03;6.93;;;1.70;;
20101;SDS011;10210;52.284;9.892;2022-08-06T01:57:34;6.00;;;1.60;;
20101;SDS011;10210;52.284;9.892;2022-08-06T02:00:05;5.43;;;1.60;;
20101;SDS011;10210;52.284;9.892;2022-08-06T02:02:31;3.10;;;1.53;;
20101;SDS011;10210;52.284;9.892;2022-08-06T02:05:02;6.63;;;1.80;;
20101;SDS011;10210;52.284;9.892;2022-08-06T02:07:32;5.10;;;1.43;;
20101;SDS011;10210;52.284;9.892;2022-08-06T02:10:02;3.63;;;1.60;;
20101;SDS011;10210;52.284;9.892;2022-08-06T02:12:31;2.97;;;1.43;;
20101;SDS011;10210;52.284;9.892;2022-08-06T02:15:06;3.67;;;1.57;;
20101;SDS011;10210;52.284;9.892;2022-08-06T02:17:37;6.17;;;1.73;;
20101;SDS011;10210;52.284;9.892;2022-08-06T02:20:09;4.37;;;1.50;;
20101;SDS011;10210;52.284;9.892;2022-08-06T02:22:39;4.63;;;1.50;;
20101;SDS011;10210;52.284;9.892;2022-08-06T02:25:08;2.93;;;1.67;;
20101;SDS011;10210;52.284;9.892;2022-08-06T02:27:38;3.80;;;1.40;;
20101;SDS011;10210;52.284;9.892;2022-08-06T02:30:12;3.50;;;1.50;;
20101;SDS011;10210;52.284;9.892;2022-08-06T02:32:38;4.57;;;1.60;;
20101;SDS011;10210;52.284;9.892;2022-08-06T02:35:05;2.20;;;1.30;;
20101;SDS011;10210;52.284;9.892;2022-08-06T02:37:35;5.77;;;1.53;;
20101;SDS011;10210;52.284;9.892;2022-08-06T02:40:14;3.57;;;1.40;;
20101;SDS011;10210;52.284;9.892;2022-08-06T02:43:01;4.20;;;2.40;;
20101;SDS011;10210;52.284;9.892;2022-08-06T02:45:43;5.10;;;1.53;;
20101;SDS011;10210;52.284;9.892;2022-08-06T02:50:59;2.80;;;1.50;;
20101;SDS011;10210;52.284;9.892;2022-08-06T02:53:37;3.73;;;1.40;;
20101;SDS011;10210;52.284;9.892;2022-08-06T02:56:11;3.70;;;1.40;;
20101;SDS011;10210;52.284;9.892;2022-08-06T02:58:43;2.60;;;1.60;;
20101;SDS011;10210;52.284;9.892;2022-08-06T03:01:14;5.20;;;1.80;;
20101;SDS011;10210;52.284;9.892;2022-08-06T03:03:46;4.33;;;1.30;;
20101;SDS011;10210;52.284;9.892;2022-08-06T03:06:17;5.63;;;1.70;;
20101;SDS011;10210;52.284;9.892;2022-08-06T03:08:45;5.77;;;1.73;;
20101;SDS011;10210;52.284;9.892;2022-08-06T03:11:12;5.03;;;1.90;;
20101;SDS011;10210;52.284;9.892;2022-08-06T03:13:40;7.43;;;1.87;;
20101;SDS011;10210;52.284;9.892;2022-08-06T03:16:08;3.67;;;1.70;;
20101;SDS011;10210;52.284;9.892;2022-08-06T03:18:35;4.33;;;1.60;;
20101;SDS011;10210;52.284;9.892;2022-08-06T03:21:03;3.80;;;1.70;;
20101;SDS011;10210;52.284;9.892;2022-08-06T03:23:33;3.40;;;1.60;;
20101;SDS011;10210;52.284;9.892;2022-08-06T03:25:59;4.13;;;1.70;;
20101;SDS011;10210;52.284;9.892;2022-08-06T03:28:27;5.63;;;1.87;;
20101;SDS011;10210;52.284;9.892;2022-08-06T03:30:56;8.87;;;1.87;;
20101;SDS011;10210;52.284;9.892;2022-08-06T03:33:22;5.00;;;1.53;;
20101;SDS011;10210;52.284;9.892;2022-08-06T03:35:49;5.43;;;1.63;;
20101;SDS011;10210;52.284;9.892;2022-08-06T03:38:18;3.20;;;1.67;;
20101;SDS011;10210;52.284;9.892;2022-08-06T03:40:46;3.60;;;1.50;;
20101;SDS011;10210;52.284;9.892;2022-08-06T03:43:14;2.80;;;1.60;;
20101;SDS011;10210;52.284;9.892;2022-08-06T03:45:42;3.67;;;1.50;;
20101;SDS011;10210;52.284;9.892;2022-08-06T03:48:16;3.87;;;1.60;;
20101;SDS011;10210;52.284;9.892;2022-08-06T03:50:49;3.17;;;1.50;;
20101;SDS011;10210;52.284;9.892;2022-08-06T03:53:19;3.20;;;1.70;;
20101;SDS011;10210;52.284;9.892;2022-08-06T03:55:49;3.43;;;1.80;;
20101;SDS011;10210;52.284;9.892;2022-08-06T03:58:19;4.43;;;1.80;;
20101;SDS011;10210;52.284;9.892;2022-08-06T04:00:51;5.07;;;1.60;;
20101;SDS011;10210;52.284;9.892;2022-08-06T04:03:25;4.93;;;1.80;;
20101;SDS011;10210;52.284;9.892;2022-08-06T04:05:52;4.23;;;1.80;;
20101;SDS011;10210;52.284;9.892;2022-08-06T04:08:20;4.20;;;1.60;;
20101;SDS011;10210;52.284;9.892;2022-08-06T04:10:48;6.20;;;1.90;;
20101;SDS011;10210;52.284;9.892;2022-08-06T04:13:20;4.93;;;1.93;;
20101;SDS011;10210;52.284;9.892;2022-08-06T04:15:49;5.93;;;1.87;;
20101;SDS011;10210;52.284;9.892;2022-08-06T04:18:17;7.17;;;2.00;;
20101;SDS011;10210;52.284;9.892;2022-08-06T04:20:49;2.90;;;1.67;;
20101;SDS011;10210;52.284;9.892;2022-08-06T04:23:18;4.40;;;1.73;;
20101;SDS011;10210;52.284;9.892;2022-08-06T04:25:45;6.27;;;2.00;;
20101;SDS011;10210;52.284;9.892;2022-08-06T04:28:18;4.63;;;1.90;;
20101;SDS011;10210;52.284;9.892;2022-08-06T04:30:46;4.30;;;1.80;;
20101;SDS011;10210;52.284;9.892;2022-08-06T04:33:14;4.70;;;1.70;;
20101;SDS011;10210;52.284;9.892;2022-08-06T04:35:44;3.90;;;1.87;;
20101;SDS011;10210;52.284;9.892;2022-08-06T04:38:11;4.77;;;1.93;;
20101;SDS011;10210;52.284;9.892;2022-08-06T04:40:41;5.60;;;1.93;;
20101;SDS011;10210;52.284;9.892;2022-08-06T04:43:11;4.10;;;1.70;;
20101;SDS011;10210;52.284;9.892;2022-08-06T04:45:38;4.90;;;1.60;;
20101;SDS011;10210;52.284;9.892;2022-08-06T04:48:08;3.80;;;1.70;;
20101;SDS011;10210;52.284;9.892;2022-08-06T04:50:36;4.53;;;1.73;;
20101;SDS011;10210;52.284;9.892;2022-08-06T04:53:04;8.53;;;1.93;;
20101;SDS011;10210;52.284;9.892;2022-08-06T04:55:39;5.37;;;1.73;;
20101;SDS011;10210;52.284;9.892;2022-08-06T04:58:07;4.30;;;1.83;;
20101;SDS011;10210;52.284;9.892;2022-08-06T05:00:35;6.37;;;1.80;;
20101;SDS011;10210;52.284;9.892;2022-08-06T05:03:04;4.03;;;1.70;;
20101;SDS011;10210;52.284;9.892;2022-08-06T05:05:31;6.50;;;1.93;;
20101;SDS011;10210;52.284;9.892;2022-08-06T05:08:13;5.13;;;2.00;;
20101;SDS011;10210;52.284;9.892;2022-08-06T05:10:46;5.57;;;1.90;;
20101;SDS011;10210;52.284;9.892;2022-08-06T05:13:21;5.03;;;1.90;;
20101;SDS011;10210;52.284;9.892;2022-08-06T05:15:51;3.97;;;1.87;;
20101;SDS011;10210;52.284;9.892;2022-08-06T05:18:25;4.07;;;1.77;;
20101;SDS011;10210;52.284;9.892;2022-08-06T05:21:01;5.13;;;2.07;;
20101;SDS011;10210;52.284;9.892;2022-08-06T05:23:31;5.83;;;2.00;;
20101;SDS011;10210;52.284;9.892;2022-08-06T05:26:03;6.33;;;2.10;;
20101;SDS011;10210;52.284;9.892;2022-08-06T05:28:31;5.33;;;2.20;;
20101;SDS011;10210;52.284;9.892;2022-08-06T05:30:58;6.47;;;2.40;;
20101;SDS011;10210;52.284;9.892;2022-08-06T05:33:24;6.70;;;2.30;;
20101;SDS011;10210;52.284;9.892;2022-08-06T05:35:53;4.00;;;2.20;;
20101;SDS011;10210;52.284;9.892;2022-08-06T05:38:19;5.20;;;2.10;;
20101;SDS011;10210;52.284;9.892;2022-08-06T05:40:46;6.00;;;2.40;;
20101;SDS011;10210;52.284;9.892;2022-08-06T05:43:11;5.13;;;2.40;;
20101;SDS011;10210;52.284;9.892;2022-08-06T05:45:38;6.23;;;2.13;;
20101;SDS011;10210;52.284;9.892;2022-08-06T05:48:07;4.50;;;2.20;;
20101;SDS011;10210;52.284;9.892;2022-08-06T05:50:37;6.33;;;2.50;;
20101;SDS011;10210;52.284;9.892;2022-08-06T05:53:12;4.47;;;2.10;;
20101;SDS011;10210;52.284;9.892;2022-08-06T05:56:14;6.87;;;2.27;;
20101;SDS011;10210;52.284;9.892;2022-08-06T05:58:55;9.37;;;2.67;;
20101;SDS011;10210;52.284;9.892;2022-08-06T06:01:28;6.77;;;2.03;;
20101;SDS011;10210;52.284;9.892;2022-08-06T06:03:55;5.57;;;2.30;;
20101;SDS011;10210;52.284;9.892;2022-08-06T06:06:23;5.63;;;2.30;;
20101;SDS011;10210;52.284;9.892;2022-08-06T06:08:50;7.03;;;2.30;;
20101;SDS011;10210;52.284;9.892;2022-08-06T06:11:16;5.90;;;2.20;;
20101;SDS011;10210;52.284;9.892;2022-08-06T06:13:42;8.20;;;2.33;;
20101;SDS011;10210;52.284;9.892;2022-08-06T06:16:24;7.23;;;2.20;;
20101;SDS011;10210;52.284;9.892;2022-08-06T06:24:55;6.50;;;2.50;;
20101;SDS011;10210;52.284;9.892;2022-08-06T06:27:42;5.40;;;2.20;;
20101;SDS011;10210;52.284;9.892;2022-08-06T06:30:56;6.20;;;2.10;;
20101;SDS011;10210;52.284;9.892;2022-08-06T06:39:38;4.63;;;1.97;;
20101;SDS011;10210;52.284;9.892;2022-08-06T06:42:16;6.83;;;2.17;;
20101;SDS011;10210;52.284;9.892;2022-08-06T06:44:54;6.23;;;2.27;;
20101;SDS011;10210;52.284;9.892;2022-08-06T06:50:18;5.13;;;2.23;;
20101;SDS011;10210;52.284;9.892;2022-08-06T06:52:51;6.97;;;2.00;;
20101;SDS011;10210;52.284;9.892;2022-08-06T06:58:20;5.37;;;1.93;;
20101;SDS011;10210;52.284;9.892;2022-08-06T07:00:59;5.73;;;1.60;;
20101;SDS011;10210;52.284;9.892;2022-08-06T07:03:30;6.47;;;1.80;;
20101;SDS011;10210;52.284;9.892;2022-08-06T07:05:59;8.40;;;1.70;;
20101;SDS011;10210;52.284;9.892;2022-08-06T07:08:27;7.37;;;1.97;;
20101;SDS011;10210;52.284;9.892;2022-08-06T07:10:55;3.30;;;1.73;;
20101;SDS011;10210;52.284;9.892;2022-08-06T07:13:22;5.73;;;1.70;;
20101;SDS011;10210;52.284;9.892;2022-08-06T07:15:49;4.37;;;1.47;;
20101;SDS011;10210;52.284;9.892;2022-08-06T07:18:18;2.63;;;1.20;;
20101;SDS011;10210;52.284;9.892;2022-08-06T07:20:45;3.50;;;1.40;;
20101;SDS011;10210;52.284;9.892;2022-08-06T07:23:12;4.13;;;1.30;;
20101;SDS011;10210;52.284;9.892;2022-08-06T07:25:41;3.53;;;1.50;;
20101;SDS011;10210;52.284;9.892;2022-08-06T07:28:11;5.50;;;1.37;;
20101;SDS011;10210;52.284;9.892;2022-08-06T07:30:40;3.37;;;1.17;;
20101;SDS011;10210;52.284;9.892;2022-08-06T07:33:07;3.43;;;1.10;;
20101;SDS011;10210;52.284;9.892;2022-08-06T07:35:35;2.17;;;1.00;;
20101;SDS011;10210;52.284;9.892;2022-08-06T07:38:06;3.97;;;1.20;;
20101;SDS011;10210;52.284;9.892;2022-08-06T07:40:38;4.00;;;1.23;;
20101;SDS011;10210;52.284;9.892;2022-08-06T07:43:25;2.50;;;0.97;;
20101;SDS011;10210;52.284;9.892;2022-08-06T07:46:00;3.07;;;0.87;;
20101;SDS011;10210;52.284;9.892;2022-08-06T07:48:35;2.93;;;0.73;;
20101;SDS011;10210;52.284;9.892;2022-08-06T07:51:08;5.10;;;1.07;;
20101;SDS011;10210;52.284;9.892;2022-08-06T07:53:35;5.27;;;0.90;;
20101;SDS011;10210;52.284;9.892;2022-08-06T07:56:04;3.37;;;0.90;;
20101;SDS011;10210;52.284;9.892;2022-08-06T07:58:33;2.77;;;0.80;;
20101;SDS011;10210;52.284;9.892;2022-08-06T08:01:02;5.03;;;0.80;;
20101;SDS011;10210;52.284;9.892;2022-08-06T08:03:32;2.37;;;0.63;;
20101;SDS011;10210;52.284;9.892;2022-08-06T08:06:19;6.40;;;1.00;;
20101;SDS011;10210;52.284;9.892;2022-08-06T08:08:51;4.23;;;0.80;;
20101;SDS011;10210;52.284;9.892;2022-08-06T08:11:24;2.80;;;0.77;;
20101;SDS011;10210;52.284;9.892;2022-08-06T08:13:52;2.37;;;0.73;;
20101;SDS011;10210;52.284;9.892;2022-08-06T08:16:20;5.30;;;0.90;;
20101;SDS011;10210;52.284;9.892;2022-08-06T08:18:47;4.47;;;1.10;;
20101;SDS011;10210;52.284;9.892;2022-08-06T08:21:13;2.60;;;0.90;;
20101;SDS011;10210;52.284;9.892;2022-08-06T08:23:40;3.00;;;0.80;;
20101;SDS011;10210;52.284;9.892;2022-08-06T08:26:08;3.27;;;0.90;;
20101;SDS011;10210;52.284;9.892;2022-08-06T08:28:35;4.47;;;0.80;;
20101;SDS011;10210;52.284;9.892;2022-08-06T08:31:01;3.77;;;0.70;;
20101;SDS011;10210;52.284;9.892;2022-08-06T08:33:28;2.47;;;0.70;;
20101;SDS011;10210;52.284;9.892;2022-08-06T08:35:54;1.80;;;0.60;;
20101;SDS011;10210;52.284;9.892;2022-08-06T08:38:21;3.50;;;0.70;;
20101;SDS011;10210;52.284;9.892;2022-08-06T08:40:47;4.47;;;0.90;;
20101;SDS011;10210;52.284;9.892;2022-08-06T08:43:17;3.13;;;0.63;;
20101;SDS011;10210;52.284;9.892;2022-08-06T08:45:49;1.77;;;0.70;;
20101;SDS011;10210;52.284;9.892;2022-08-06T08:48:20;3.17;;;0.70;;
20101;SDS011;10210;52.284;9.892;2022-08-06T08:50:50;1.40;;;0.57;;
20101;SDS011;10210;52.284;9.892;2022-08-06T08:53:22;2.37;;;0.50;;
20101;SDS011;10210;52.284;9.892;2022-08-06T08:56:03;3.97;;;0.70;;
20101;SDS011;10210;52.284;9.892;2022-08-06T08:58:31;3.00;;;0.70;;
20101;SDS011;10210;52.284;9.892;2022-08-06T09:01:02;1.53;;;0.60;;
20101;SDS011;10210;52.284;9.892;2022-08-06T09:03:37;4.50;;;0.70;;
20101;SDS011;10210;52.284;9.892;2022-08-06T09:06:05;2.43;;;0.67;;
20101;SDS011;10210;52.284;9.892;2022-08-06T09:08:33;3.17;;;0.93;;
20101;SDS011;10210;52.284;9.892;2022-08-06T09:11:01;3.87;;;0.93;;
20101;SDS011;10210;52.284;9.892;2022-08-06T09:13:29;2.60;;;0.67;;
20101;SDS011;10210;52.284;9.892;2022-08-06T09:15:55;1.80;;;0.80;;
20101;SDS011;10210;52.284;9.892;2022-08-06T09:18:23;1.33;;;0.63;;
20101;SDS011;10210;52.284;9.892;2022-08-06T09:20:51;4.50;;;0.73;;
20101;SDS011;10210;52.284;9.892;2022-08-06T09:23:17;1.83;;;0.60;;
20101;SDS011;10210;52.284;9.892;2022-08-06T09:25:48;4.57;;;1.20;;
20101;SDS011;10210;52.284;9.892;2022-08-06T09:30:58;1.43;;;0.60;;
20101;SDS011;10210;52.284;9.892;2022-08-06T09:36:24;2.83;;;0.83;;
20101;SDS011;10210;52.284;9.892;2022-08-06T09:38:51;2.13;;;0.53;;
20101;SDS011;10210;52.284;9.892;2022-08-06T09:41:24;2.17;;;0.70;;
20101;SDS011;10210;52.284;9.892;2022-08-06T09:43:54;2.93;;;0.70;;
20101;SDS011;10210;52.284;9.892;2022-08-06T09:49:07;3.33;;;0.63;;
20101;SDS011;10210;52.284;9.892;2022-08-06T09:51:37;2.53;;;0.57;;
20101;SDS011;10210;52.284;9.892;2022-08-06T09:54:10;3.27;;;0.60;;
20101;SDS011;10210;52.284;9.892;2022-08-06T09:56:40;2.20;;;0.57;;
20101;SDS011;10210;52.284;9.892;2022-08-06T09:59:10;3.73;;;0.60;;
20101;SDS011;10210;52.284;9.892;2022-08-06T10:01:41;2.17;;;0.57;;
20101;SDS011;10210;52.284;9.892;2022-08-06T10:04:13;3.93;;;0.80;;
20101;SDS011;10210;52.284;9.892;2022-08-06T10:06:56;3.47;;;0.80;;
20101;SDS011;10210;52.284;9.892;2022-08-06T10:09:24;2.47;;;0.80;;
20101;SDS011;10210;52.284;9.892;2022-08-06T10:11:51;2.77;;;0.53;;
20101;SDS011;10210;52.284;9.892;2022-08-06T10:14:30;2.20;;;0.50;;
20101;SDS011;10210;52.284;9.892;2022-08-06T10:17:14;2.33;;;0.50;;
20101;SDS011;10210;52.284;9.892;2022-08-06T10:20:06;1.67;;;0.50;;
20101;SDS011;10210;52.284;9.892;2022-08-06T10:22:49;2.80;;;0.83;;
20101;SDS011;10210;52.284;9.892;2022-08-06T10:25:25;1.73;;;0.50;;
20101;SDS011;10210;52.284;9.892;2022-08-06T10:27:54;3.53;;;0.70;;
20101;SDS011;10210;52.284;9.892;2022-08-06T10:30:21;2.93;;;0.70;;
20101;SDS011;10210;52.284;9.892;2022-08-06T10:33:02;3.13;;;0.70;;
20101;SDS011;10210;52.284;9.892;2022-08-06T10:35:32;5.00;;;0.90;;
20101;SDS011;10210;52.284;9.892;2022-08-06T10:38:01;2.00;;;1.20;;
20101;SDS011;10210;52.284;9.892;2022-08-06T10:40:30;3.83;;;1.03;;
20101;SDS011;10210;52.284;9.892;2022-08-06T10:42:58;1.30;;;0.50;;
20101;SDS011;10210;52.284;9.892;2022-08-06T10:45:28;4.83;;;1.10;;
20101;SDS011;10210;52.284;9.892;2022-08-06T10:47:55;1.80;;;0.60;;
20101;SDS011;10210;52.284;9.892;2022-08-06T10:50:23;2.30;;;0.60;;
20101;SDS011;10210;52.284;9.892;2022-08-06T10:52:49;2.47;;;0.70;;
20101;SDS011;10210;52.284;9.892;2022-08-06T10:55:16;4.13;;;0.90;;
20101;SDS011;10210;52.284;9.892;2022-08-06T10:57:42;3.23;;;0.60;;
20101;SDS011;10210;52.284;9.892;2022-08-06T11:00:09;5.90;;;1.00;;
20101;SDS011;10210;52.284;9.892;2022-08-06T11:02:51;2.63;;;0.70;;
20101;SDS011;10210;52.284;9.892;2022-08-06T11:05:29;3.50;;;0.73;;
20101;SDS011;10210;52.284;9.892;2022-08-06T11:13:56;1.30;;;0.50;;
20101;SDS011;10210;52.284;9.892;2022-08-06T11:16:31;1.73;;;0.53;;
20101;SDS011;10210;52.284;9.892;2022-08-06T11:18:58;2.10;;;0.40;;
20101;SDS011;10210;52.284;9.892;2022-08-06T11:24:13;2.13;;;0.70;;
20101;SDS011;10210;52.284;9.892;2022-08-06T11:26:41;1.43;;;0.60;;
20101;SDS011;10210;52.284;9.892;2022-08-06T11:29:09;1.97;;;0.60;;
20101;SDS011;10210;52.284;9.892;2022-08-06T11:31:38;2.70;;;0.80;;
20101;SDS011;10210;52.284;9.892;2022-08-06T11:34:14;3.13;;;0.70;;
20101;SDS011;10210;52.284;9.892;2022-08-06T11:36:50;1.57;;;0.50;;
20101;SDS011;10210;52.284;9.892;2022-08-06T11:39:21;3.10;;;0.70;;
20101;SDS011;10210;52.284;9.892;2022-08-06T11:41:57;1.60;;;0.60;;
20101;SDS011;10210;52.284;9.892;2022-08-06T11:44:27;3.23;;;0.60;;
20101;SDS011;10210;52.284;9.892;2022-08-06T11:47:16;1.80;;;0.63;;
20101;SDS011;10210;52.284;9.892;2022-08-06T11:49:47;1.03;;;0.53;;
20101;SDS011;10210;52.284;9.892;2022-08-06T11:55:00;2.07;;;0.50;;
20101;SDS011;10210;52.284;9.892;2022-08-06T11:57:32;3.30;;;0.70;;
20101;SDS011;10210;52.284;9.892;2022-08-06T12:07:41;4.30;;;0.60;;
20101;SDS011;10210;52.284;9.892;2022-08-06T12:10:10;2.00;;;0.70;;
20101;SDS011;10210;52.284;9.892;2022-08-06T12:12:45;2.40;;;0.70;;
20101;SDS011;10210;52.284;9.892;2022-08-06T12:17:38;1.40;;;0.50;;
20101;SDS011;10210;52.284;9.892;2022-08-06T12:20:08;2.07;;;0.50;;
20101;SDS011;10210;52.284;9.892;2022-08-06T12:22:34;2.23;;;0.60;;
20101;SDS011;10210;52.284;9.892;2022-08-06T12:25:05;0.80;;;0.50;;
20101;SDS011;10210;52.284;9.892;2022-08-06T12:27:33;0.97;;;0.40;;
20101;SDS011;10210;52.284;9.892;2022-08-06T12:30:02;1.83;;;0.40;;
20101;SDS011;10210;52.284;9.892;2022-08-06T12:32:33;1.90;;;0.40;;
20101;SDS011;10210;52.284;9.892;2022-08-06T12:35:02;1.73;;;0.20;;
20101;SDS011;10210;52.284;9.892;2022-08-06T12:37:40;2.10;;;0.40;;
20101;SDS011;10210;52.284;9.892;2022-08-06T12:40:17;3.30;;;0.70;;
20101;SDS011;10210;52.284;9.892;2022-08-06T12:42:54;2.10;;;0.63;;
20101;SDS011;10210;52.284;9.892;2022-08-06T12:45:35;2.50;;;0.43;;
20101;SDS011;10210;52.284;9.892;2022-08-06T12:48:02;3.37;;;0.57;;
20101;SDS011;10210;52.284;9.892;2022-08-06T12:50:32;4.40;;;0.80;;
20101;SDS011;10210;52.284;9.892;2022-08-06T12:55:47;1.20;;;0.50;;
20101;SDS011;10210;52.284;9.892;2022-08-06T12:58:16;1.73;;;0.50;;
20101;SDS011;10210;52.284;9.892;2022-08-06T13:01:03;0.60;;;0.30;;
20101;SDS011;10210;52.284;9.892;2022-08-06T13:03:32;1.13;;;0.50;;
20101;SDS011;10210;52.284;9.892;2022-08-06T13:06:03;1.40;;;0.40;;
20101;SDS011;10210;52.284;9.892;2022-08-06T13:08:33;0.47;;;0.27;;
20101;SDS011;10210;52.284;9.892;2022-08-06T13:11:00;1.30;;;0.40;;
20101;SDS011;10210;52.284;9.892;2022-08-06T13:13:37;0.90;;;0.27;;
20101;SDS011;10210;52.284;9.892;2022-08-06T13:16:08;2.57;;;0.37;;
20101;SDS011;10210;52.284;9.892;2022-08-06T13:18:36;0.90;;;0.40;;
20101;SDS011;10210;52.284;9.892;2022-08-06T13:21:14;2.83;;;0.30;;
20101;SDS011;10210;52.284;9.892;2022-08-06T13:23:47;0.93;;;0.43;;
20101;SDS011;10210;52.284;9.892;2022-08-06T13:26:18;1.60;;;0.60;;
20101;SDS011;10210;52.284;9.892;2022-08-06T13:31:44;0.97;;;0.37;;
20101;SDS011;10210;52.284;9.892;2022-08-06T13:34:12;2.73;;;0.60;;
20101;SDS011;10210;52.284;9.892;2022-08-06T13:36:42;1.60;;;0.40;;
20101;SDS011;10210;52.284;9.892;2022-08-06T13:39:24;2.47;;;0.37;;
20101;SDS011;10210;52.284;9.892;2022-08-06T13:42:02;0.90;;;0.40;;
20101;SDS011;10210;52.284;9.892;2022-08-06T13:44:39;1.17;;;0.40;;
20101;SDS011;10210;52.284;9.892;2022-08-06T13:47:08;1.03;;;0.53;;
20101;SDS011;10210;52.284;9.892;2022-08-06T13:49:42;0.87;;;0.40;;
20101;SDS011;10210;52.284;9.892;2022-08-06T13:52:09;0.97;;;0.40;;
20101;SDS011;10210;52.284;9.892;2022-08-06T13:54:36;1.27;;;0.47;;
20101;SDS011;10210;52.284;9.892;2022-08-06T13:57:02;0.73;;;0.50;;
20101;SDS011;10210;52.284;9.892;2022-08-06T13:59:29;4.17;;;0.50;;
20101;SDS011;10210;52.284;9.892;2022-08-06T14:01:56;1.50;;;0.40;;
20101;SDS011;10210;52.284;9.892;2022-08-06T14:04:24;1.43;;;0.40;;
20101;SDS011;10210;52.284;9.892;2022-08-06T14:06:50;1.17;;;0.30;;
20101;SDS011;10210;52.284;9.892;2022-08-06T14:09:19;0.93;;;0.40;;
20101;SDS011;10210;52.284;9.892;2022-08-06T14:11:50;1.17;;;0.40;;
20101;SDS011;10210;52.284;9.892;2022-08-06T14:14:19;1.23;;;0.20;;
20101;SDS011;10210;52.284;9.892;2022-08-06T14:16:46;1.97;;;0.30;;
20101;SDS011;10210;52.284;9.892;2022-08-06T14:19:12;2.70;;;0.50;;
20101;SDS011;10210;52.284;9.892;2022-08-06T14:21:37;1.40;;;0.43;;
20101;SDS011;10210;52.284;9.892;2022-08-06T14:24:03;0.83;;;0.13;;
20101;SDS011;10210;52.284;9.892;2022-08-06T14:26:29;0.87;;;0.40;;
20101;SDS011;10210;52.284;9.892;2022-08-06T14:28:55;1.07;;;0.47;;
20101;SDS011;10210;52.284;9.892;2022-08-06T14:31:21;0.53;;;0.33;;
20101;SDS011;10210;52.284;9.892;2022-08-06T14:33:46;1.67;;;0.40;;
20101;SDS011;10210;52.284;9.892;2022-08-06T14:36:12;0.93;;;0.47;;
20101;SDS011;10210;52.284;9.892;2022-08-06T14:38:39;2.80;;;0.40;;
20101;SDS011;10210;52.284;9.892;2022-08-06T14:41:05;2.13;;;0.40;;
20101;SDS011;10210;52.284;9.892;2022-08-06T14:43:50;1.97;;;0.40;;
20101;SDS011;10210;52.284;9.892;2022-08-06T14:46:34;1.67;;;0.60;;
20101;SDS011;10210;52.284;9.892;2022-08-06T14:49:01;1.53;;;0.40;;
20101;SDS011;10210;52.284;9.892;2022-08-06T14:51:27;1.07;;;0.40;;
20101;SDS011;10210;52.284;9.892;2022-08-06T14:53:53;1.10;;;0.40;;
20101;SDS011;10210;52.284;9.892;2022-08-06T14:56:19;1.33;;;0.53;;
20101;SDS011;10210;52.284;9.892;2022-08-06T14:58:45;0.50;;;0.30;;
20101;SDS011;10210;52.284;9.892;2022-08-06T15:01:10;1.17;;;0.33;;
20101;SDS011;10210;52.284;9.892;2022-08-06T15:03:36;2.77;;;0.30;;
20101;SDS011;10210;52.284;9.892;2022-08-06T15:06:03;0.93;;;0.30;;
20101;SDS011;10210;52.284;9.892;2022-08-06T15:08:29;1.67;;;0.60;;
20101;SDS011;10210;52.284;9.892;2022-08-06T15:10:54;1.30;;;0.57;;
20101;SDS011;10210;52.284;9.892;2022-08-06T15:13:20;1.77;;;0.70;;
20101;SDS011;10210;52.284;9.892;2022-08-06T15:15:46;1.73;;;0.47;;
20101;SDS011;10210;52.284;9.892;2022-08-06T15:18:11;1.50;;;0.40;;
20101;SDS011;10210;52.284;9.892;2022-08-06T15:20:37;0.50;;;0.30;;
20101;SDS011;10210;52.284;9.892;2022-08-06T15:23:03;1.60;;;0.37;;
20101;SDS011;10210;52.284;9.892;2022-08-06T15:25:29;1.80;;;0.30;;
20101;SDS011;10210;52.284;9.892;2022-08-06T15:27:55;1.03;;;0.40;;
20101;SDS011;10210;52.284;9.892;2022-08-06T15:30:20;0.83;;;0.40;;
20101;SDS011;10210;52.284;9.892;2022-08-06T15:32:46;2.10;;;0.70;;
20101;SDS011;10210;52.284;9.892;2022-08-06T15:35:12;1.90;;;0.50;;
20101;SDS011;10210;52.284;9.892;2022-08-06T15:37:38;1.50;;;0.50;;
20101;SDS011;10210;52.284;9.892;2022-08-06T15:40:04;0.90;;;0.40;;
20101;SDS011;10210;52.284;9.892;2022-08-06T15:42:30;1.47;;;0.50;;
20101;SDS011;10210;52.284;9.892;2022-08-06T15:44:56;0.90;;;0.40;;
20101;SDS011;10210;52.284;9.892;2022-08-06T15:47:22;2.27;;;0.37;;
20101;SDS011;10210;52.284;9.892;2022-08-06T15:49:48;1.07;;;0.30;;
20101;SDS011;10210;52.284;9.892;2022-08-06T15:52:13;1.23;;;0.50;;
20101;SDS011;10210;52.284;9.892;2022-08-06T15:54:39;2.93;;;0.40;;
20101;SDS011;10210;52.284;9.892;2022-08-06T15:57:04;2.17;;;0.60;;
20101;SDS011;10210;52.284;9.892;2022-08-06T15:59:30;0.97;;;0.33;;
20101;SDS011;10210;52.284;9.892;2022-08-06T16:01:56;2.03;;;0.47;;
20101;SDS011;10210;52.284;9.892;2022-08-06T16:04:22;2.33;;;0.40;;
20101;SDS011;10210;52.284;9.892;2022-08-06T16:06:47;0.97;;;0.30;;
20101;SDS011;10210;52.284;9.892;2022-08-06T16:09:13;1.60;;;0.40;;